NJE898D EBBR-LFPB
Flight info
| Callsign | NJE898D |
|---|---|
| Flight time | N/A |
| Altitude | 19000 |
| Route | CIV Y50 MATIX LFPB/07 |
| Aircraft | CL60/M-SBDE1E2E3FGHIJ1J4J5J7M3RWXYZ/LB1V1D1 |
Departure
| Time | N/A |
|---|---|
| Airport | Brussels Airport (EBBR) |
Arrival
| Time | 2026-04-24 19:13 |
|---|---|
| Airport | Paris-Le Bourget International Airport (LFPB) |
| Time | Latitude | Longitude | Altitude | Speed | Heading |
|---|---|---|---|---|---|
| 2026-04-24 18:54 | 49.17704 | 3.05200 | 7156 ft | 286 kts | 257° |
| 2026-04-24 18:55 | 49.16831 | 2.99294 | 7165 ft | 285 kts | 257° |
| 2026-04-24 18:55 | 49.16387 | 2.96296 | 7155 ft | 286 kts | 257° |
| 2026-04-24 18:55 | 49.15948 | 2.93345 | 7155 ft | 286 kts | 257° |
| 2026-04-24 18:56 | 49.15506 | 2.90368 | 7160 ft | 285 kts | 257° |
| 2026-04-24 18:56 | 49.15069 | 2.87444 | 7155 ft | 284 kts | 257° |
| 2026-04-24 18:56 | 49.14649 | 2.84628 | 7170 ft | 285 kts | 257° |
| 2026-04-24 18:56 | 49.14211 | 2.81700 | 7148 ft | 284 kts | 257° |
| 2026-04-24 18:57 | 49.13770 | 2.78759 | 7140 ft | 285 kts | 257° |
| 2026-04-24 18:57 | 49.13325 | 2.75800 | 7159 ft | 278 kts | 257° |
| 2026-04-24 18:57 | 49.12911 | 2.73041 | 7187 ft | 259 kts | 257° |
| 2026-04-24 18:57 | 49.12514 | 2.70396 | 7172 ft | 253 kts | 257° |
| 2026-04-24 18:58 | 49.12122 | 2.67787 | 7164 ft | 253 kts | 257° |
| 2026-04-24 18:58 | 49.11733 | 2.65209 | 7170 ft | 251 kts | 257° |
| 2026-04-24 18:58 | 49.11338 | 2.62591 | 7171 ft | 253 kts | 257° |
| 2026-04-24 18:58 | 49.10940 | 2.59960 | 7163 ft | 252 kts | 257° |
| 2026-04-24 18:59 | 49.10719 | 2.57324 | 7164 ft | 252 kts | 269° |
| 2026-04-24 18:59 | 49.10681 | 2.54634 | 7159 ft | 251 kts | 269° |
| 2026-04-24 18:59 | 49.10640 | 2.51978 | 7157 ft | 251 kts | 269° |
| 2026-04-24 18:59 | 49.10597 | 2.49331 | 7158 ft | 250 kts | 269° |
| 2026-04-24 19:00 | 49.10553 | 2.46653 | 7161 ft | 250 kts | 269° |
| 2026-04-24 19:00 | 49.10507 | 2.43992 | 7161 ft | 250 kts | 269° |
| 2026-04-24 19:00 | 49.10460 | 2.41316 | 7159 ft | 251 kts | 269° |
| 2026-04-24 19:00 | 49.10412 | 2.38670 | 7160 ft | 251 kts | 269° |
| 2026-04-24 19:01 | 49.10354 | 2.35975 | 7038 ft | 254 kts | 269° |
| 2026-04-24 19:01 | 49.10292 | 2.33292 | 6673 ft | 257 kts | 268° |
| 2026-04-24 19:01 | 49.10226 | 2.30557 | 6294 ft | 256 kts | 268° |
| 2026-04-24 19:01 | 49.10162 | 2.27871 | 5920 ft | 255 kts | 268° |
| 2026-04-24 19:02 | 49.10096 | 2.25192 | 5507 ft | 248 kts | 268° |
| 2026-04-24 19:02 | 49.10032 | 2.22662 | 5142 ft | 231 kts | 268° |
| 2026-04-24 19:02 | 49.09938 | 2.20263 | 4785 ft | 224 kts | 260° |
| 2026-04-24 19:02 | 49.09241 | 2.18184 | 4394 ft | 220 kts | 221° |
| 2026-04-24 19:03 | 49.08039 | 2.16796 | 4023 ft | 218 kts | 212° |
| 2026-04-24 19:03 | 49.06780 | 2.15462 | 3644 ft | 220 kts | 211° |
| 2026-04-24 19:03 | 49.05535 | 2.14128 | 3268 ft | 219 kts | 211° |
| 2026-04-24 19:03 | 49.04299 | 2.12787 | 3061 ft | 219 kts | 212° |
| 2026-04-24 19:04 | 49.03048 | 2.11436 | 3018 ft | 220 kts | 212° |
| 2026-04-24 19:04 | 49.01803 | 2.10102 | 3004 ft | 220 kts | 212° |
| 2026-04-24 19:04 | 49.00534 | 2.08749 | 3003 ft | 220 kts | 212° |
| 2026-04-24 19:04 | 48.99287 | 2.07423 | 3006 ft | 220 kts | 212° |
| 2026-04-24 19:05 | 48.98009 | 2.06065 | 3006 ft | 221 kts | 212° |
| 2026-04-24 19:05 | 48.96757 | 2.04735 | 3006 ft | 220 kts | 212° |
| 2026-04-24 19:05 | 48.95500 | 2.03396 | 3005 ft | 221 kts | 212° |
| 2026-04-24 19:05 | 48.94240 | 2.02053 | 3005 ft | 221 kts | 212° |
| 2026-04-24 19:06 | 48.92975 | 2.00699 | 3004 ft | 220 kts | 212° |
| 2026-04-24 19:06 | 48.91681 | 1.99534 | 2999 ft | 216 kts | 193° |
| 2026-04-24 19:06 | 48.90240 | 1.99571 | 2996 ft | 205 kts | 158° |
| 2026-04-24 19:06 | 48.89045 | 2.00633 | 3008 ft | 198 kts | 133° |
| 2026-04-24 19:07 | 48.88293 | 2.02363 | 3014 ft | 194 kts | 108° |
| 2026-04-24 19:07 | 48.88103 | 2.04377 | 3015 ft | 193 kts | 86° |
| 2026-04-24 19:07 | 48.88266 | 2.06402 | 3018 ft | 194 kts | 82° |
| 2026-04-24 19:07 | 48.88446 | 2.08436 | 3014 ft | 194 kts | 82° |
| 2026-04-24 19:08 | 48.88622 | 2.10476 | 3015 ft | 194 kts | 82° |
| 2026-04-24 19:08 | 48.88796 | 2.12503 | 3018 ft | 194 kts | 82° |
| 2026-04-24 19:08 | 48.89000 | 2.14543 | 3017 ft | 194 kts | 76° |
| 2026-04-24 19:08 | 48.89462 | 2.16440 | 3014 ft | 194 kts | 66° |
| 2026-04-24 19:09 | 48.89998 | 2.18319 | 3013 ft | 194 kts | 68° |
| 2026-04-24 19:09 | 48.90517 | 2.20240 | 3014 ft | 194 kts | 68° |
| 2026-04-24 19:09 | 48.91027 | 2.22133 | 3014 ft | 194 kts | 68° |
| 2026-04-24 19:09 | 48.91539 | 2.24024 | 3013 ft | 194 kts | 68° |
| 2026-04-24 19:10 | 48.92049 | 2.25901 | 3010 ft | 194 kts | 68° |
| 2026-04-24 19:10 | 48.92571 | 2.27782 | 2896 ft | 192 kts | 68° |
| 2026-04-24 19:10 | 48.93042 | 2.29596 | 2528 ft | 180 kts | 68° |
| 2026-04-24 19:10 | 48.93468 | 2.31209 | 2303 ft | 155 kts | 68° |
| 2026-04-24 19:11 | 48.93864 | 2.32715 | 1994 ft | 150 kts | 67° |
| 2026-04-24 19:11 | 48.94239 | 2.34167 | 1668 ft | 145 kts | 69° |
| 2026-04-24 19:11 | 48.94575 | 2.35526 | 1240 ft | 131 kts | 66° |
| 2026-04-24 19:11 | 48.94908 | 2.36720 | 925 ft | 117 kts | 67° |
| 2026-04-24 19:12 | 48.95237 | 2.37855 | 738 ft | 118 kts | 64° |
| 2026-04-24 19:12 | 48.95557 | 2.39011 | 600 ft | 118 kts | 70° |
| 2026-04-24 19:12 | 48.95874 | 2.40182 | 481 ft | 120 kts | 66° |
| 2026-04-24 19:12 | 48.96203 | 2.41349 | 326 ft | 122 kts | 68° |
| 2026-04-24 19:13 | 48.96419 | 2.42154 | 207 ft | 121 kts | 68° |
| 2026-04-24 19:13 | 48.96795 | 2.43554 | 173 ft | 83 kts | 68° |
| 2026-04-24 19:13 | 48.96936 | 2.44098 | 180 ft | 35 kts | 67° |
| 2026-04-24 19:13 | 48.96914 | 2.44325 | 182 ft | 23 kts | 129° |
| 2026-04-24 19:14 | 48.96818 | 2.44409 | 182 ft | 12 kts | 165° |
| 2026-04-24 19:14 | 48.96747 | 2.44442 | 180 ft | 6 kts | 158° |
| 2026-04-24 19:14 | 48.96691 | 2.44470 | 179 ft | 11 kts | 162° |
| 2026-04-24 19:14 | 48.96611 | 2.44509 | 178 ft | 13 kts | 163° |
| 2026-04-24 19:15 | 48.96514 | 2.44539 | 177 ft | 11 kts | 176° |
| 2026-04-24 19:15 | 48.96416 | 2.44553 | 175 ft | 11 kts | 184° |
| 2026-04-24 19:15 | 48.96352 | 2.44557 | 173 ft | 9 kts | 129° |
| 2026-04-24 19:15 | 48.96336 | 2.44662 | 174 ft | 7 kts | 96° |
| 2026-04-24 19:16 | 48.96312 | 2.44773 | 175 ft | 3 kts | 167° |
| 2026-04-24 19:16 | 48.96303 | 2.44776 | 175 ft | 0 kts | 167° |